Time;durP1;ratioP1;P1;durP2;ratioP2;P2;SDS_P1;SDS_P2;PMS_P1;PMS_P2;Temp;Humidity;BMP_temperature;BMP_pressure;BME280_temperature;BME280_humidity;BME280_pressure;Samples;Min_cycle;Max_cycle;Signal;HPM_P1;HPM_P2
2020/12/07 00:01:57;;;;;;;0.30;0.27;;;6.10;87.70;;;;;;3470337;33;20136;-88
2020/12/07 00:04:23;;;;;;;0.23;0.10;;;6.00;87.70;;;;;;3474711;41;20135;-88
2020/12/07 00:06:56;;;;;;;3.43;0.53;;;6.10;87.80;;;;;;3476216;41;20463;-88
2020/12/07 00:09:23;;;;;;;2.00;0.57;;;6.00;87.70;;;;;;3492231;33;20127;-88
2020/12/07 00:11:50;;;;;;;2.33;0.57;;;6.00;87.70;;;;;;3468736;41;20159;-88
2020/12/07 00:14:16;;;;;;;0.37;0.10;;;6.00;87.70;;;;;;3469862;34;20481;-87
2020/12/07 00:16:46;;;;;;;3.10;0.23;;;6.10;87.80;;;;;;3477072;34;20162;-87
2020/12/07 00:19:13;;;;;;;0.23;0.03;;;6.00;87.70;;;;;;3482243;41;20138;-87
2020/12/07 00:21:42;;;;;;;0.30;0.23;;;6.10;87.70;;;;;;3478825;33;20168;-88
2020/12/07 00:24:10;;;;;;;0.47;0.23;;;6.10;87.60;;;;;;3470942;33;20147;-88
2020/12/07 00:26:37;;;;;;;1.23;0.57;;;6.10;87.60;;;;;;3469623;33;20154;-87
2020/12/07 00:29:04;;;;;;;3.73;0.73;;;6.10;87.70;;;;;;3479726;41;20123;-88
2020/12/07 00:31:33;;;;;;;0.10;0.00;;;6.00;87.60;;;;;;3479708;33;20127;-88
2020/12/07 00:33:59;;;;;;;0.73;0.30;;;6.00;87.60;;;;;;3467914;33;20576;-88
2020/12/07 00:36:26;;;;;;;0.07;0.00;;;6.00;87.70;;;;;;3484999;33;20308;-89
2020/12/07 00:38:53;;;;;;;0.53;0.27;;;6.00;87.70;;;;;;3496083;33;20150;-88
2020/12/07 00:41:23;;;;;;;0.17;0.13;;;6.00;87.60;;;;;;3476664;41;20170;-88
2020/12/07 00:43:49;;;;;;;0.33;0.17;;;6.00;87.70;;;;;;3471381;41;20154;-88
2020/12/07 00:46:16;;;;;;;2.40;0.90;;;6.00;87.70;;;;;;3463094;33;20142;-87
2020/12/07 00:48:42;;;;;;;1.13;0.20;;;6.00;87.70;;;;;;3461703;41;20130;-88
2020/12/07 00:51:10;;;;;;;2.90;0.80;;;6.00;87.70;;;;;;3477690;41;20150;-88
2020/12/07 00:53:36;;;;;;;1.07;0.20;;;6.00;87.20;;;;;;3485261;33;20152;-88
2020/12/07 00:56:02;;;;;;;2.87;1.20;;;6.00;88.60;;;;;;3474638;41;20163;-87
2020/12/07 00:58:29;;;;;;;2.50;0.87;;;6.00;87.80;;;;;;3475636;41;20138;-87
2020/12/07 01:00:56;;;;;;;0.60;0.30;;;6.00;87.80;;;;;;3476932;34;20157;-86
2020/12/07 01:03:22;;;;;;;0.57;0.47;;;6.00;87.80;;;;;;3469118;34;20479;-88
2020/12/07 01:05:49;;;;;;;0.33;0.20;;;6.00;87.80;;;;;;3486248;33;20178;-88
2020/12/07 01:08:15;;;;;;;0.40;0.33;;;6.00;87.80;;;;;;3477864;33;20119;-87
2020/12/07 01:10:42;;;;;;;0.57;0.43;;;6.00;87.70;;;;;;3462669;41;20107;-89
2020/12/07 01:13:09;;;;;;;0.87;0.20;;;5.90;87.70;;;;;;3480459;33;20107;-87
2020/12/07 01:15:35;;;;;;;1.70;0.63;;;5.90;87.90;;;;;;3488938;33;20094;-88
2020/12/07 01:18:02;;;;;;;0.60;0.20;;;5.90;87.90;;;;;;3473317;41;20623;-87
2020/12/07 01:20:28;;;;;;;1.60;0.27;;;5.90;88.00;;;;;;3496504;41;20126;-88
2020/12/07 01:22:55;;;;;;;0.37;0.30;;;5.90;88.00;;;;;;3482927;41;20126;-87
2020/12/07 01:25:21;;;;;;;0.40;0.17;;;5.80;88.00;;;;;;3485763;33;20086;-87
2020/12/07 01:27:47;;;;;;;0.13;0.10;;;5.90;88.00;;;;;;3481853;41;20091;-88
2020/12/07 01:30:14;;;;;;;0.40;0.23;;;5.90;88.00;;;;;;3481207;34;20086;-87
2020/12/07 01:32:40;;;;;;;0.13;0.03;;;5.90;87.90;;;;;;3488619;33;20104;-87
2020/12/07 01:35:07;;;;;;;0.03;0.03;;;5.90;87.90;;;;;;3489213;33;20103;-87
2020/12/07 01:37:33;;;;;;;0.97;0.20;;;5.90;87.90;;;;;;3450346;34;20123;-88
2020/12/07 01:39:59;;;;;;;5.20;0.87;;;5.90;87.90;;;;;;3464243;41;20167;-88
2020/12/07 01:42:26;;;;;;;0.50;0.30;;;5.90;87.80;;;;;;3467748;33;20499;-87
2020/12/07 01:44:52;;;;;;;0.50;0.37;;;5.90;87.80;;;;;;3467987;33;20612;-88
2020/12/07 01:47:27;;;;;;;0.03;0.00;;;5.90;87.70;;;;;;3463415;34;20124;-87
2020/12/07 01:49:54;;;;;;;0.83;0.57;;;5.90;87.80;;;;;;3465503;41;20503;-87
2020/12/07 01:52:20;;;;;;;1.87;0.43;;;5.90;87.80;;;;;;3468122;34;20119;-88
2020/12/07 01:54:47;;;;;;;0.60;0.30;;;5.90;87.80;;;;;;3449616;41;20570;-88
2020/12/07 01:57:14;;;;;;;0.00;0.00;;;5.80;87.80;;;;;;3463892;33;20192;-87
2020/12/07 01:59:40;;;;;;;0.00;0.00;;;5.80;87.80;;;;;;3469899;33;20114;-88
2020/12/07 02:02:08;;;;;;;0.47;0.23;;;5.80;87.90;;;;;;3467896;34;20123;-88
2020/12/07 02:04:35;;;;;;;1.20;0.27;;;5.80;87.90;;;;;;3475347;33;20111;-88
2020/12/07 02:07:01;;;;;;;1.07;0.47;;;5.70;87.90;;;;;;3477661;41;20779;-86
2020/12/07 02:09:31;;;;;;;0.47;0.47;;;5.80;88.00;;;;;;3465261;41;20103;-86
2020/12/07 02:11:57;;;;;;;0.67;0.20;;;5.80;88.00;;;;;;3457062;41;20377;-87
2020/12/07 02:14:24;;;;;;;2.00;0.30;;;5.80;88.00;;;;;;3473034;41;20126;-88
2020/12/07 02:16:51;;;;;;;0.57;0.23;;;5.70;88.00;;;;;;3480471;34;20122;-87
2020/12/07 02:19:17;;;;;;;0.10;0.10;;;5.70;88.00;;;;;;3469088;33;20114;-90
2020/12/07 02:21:43;;;;;;;0.57;0.30;;;5.70;88.10;;;;;;3458281;33;20111;-89
2020/12/07 02:24:10;;;;;;;0.63;0.20;;;5.70;88.10;;;;;;3469343;41;20147;-88
2020/12/07 02:26:36;;;;;;;1.77;0.40;;;5.70;88.20;;;;;;3457248;41;20142;-88
2020/12/07 02:29:03;;;;;;;0.33;0.20;;;5.60;88.20;;;;;;3461426;41;20123;-88
2020/12/07 02:32:08;;;;;;;;;;;;;;;;;;;;;
2020/12/07 02:34:34;;;;;;;1.70;0.60;;;5.60;88.30;;;;;;3473042;33;20356;-88
2020/12/07 02:37:01;;;;;;;0.70;0.40;;;5.60;88.30;;;;;;3458101;41;20147;-87
2020/12/07 02:39:27;;;;;;;0.23;0.20;;;5.60;88.30;;;;;;3462252;41;20158;-87
2020/12/07 02:41:54;;;;;;;0.50;0.37;;;5.50;88.20;;;;;;3456792;41;20577;-89
2020/12/07 02:44:20;;;;;;;2.60;0.73;;;5.50;88.30;;;;;;3463095;41;20151;-88
2020/12/07 02:46:46;;;;;;;5.90;0.83;;;5.50;88.40;;;;;;3473600;34;20135;-88
2020/12/07 02:49:14;;;;;;;4.13;0.67;;;5.40;88.50;;;;;;3475131;41;20136;-86
2020/12/07 02:51:40;;;;;;;0.50;0.30;;;5.40;88.60;;;;;;3478656;33;20147;-88
2020/12/07 02:54:07;;;;;;;0.77;0.40;;;5.40;88.60;;;;;;3459596;41;20155;-87
2020/12/07 02:56:33;;;;;;;0.30;0.20;;;5.30;88.70;;;;;;3458546;34;20304;-87
2020/12/07 02:58:59;;;;;;;2.43;0.27;;;5.30;88.80;;;;;;3452716;41;20162;-88
2020/12/07 03:01:26;;;;;;;1.53;0.63;;;5.20;88.80;;;;;;3473458;33;20155;-87
2020/12/07 03:03:52;;;;;;;0.13;0.10;;;5.10;88.90;;;;;;3461235;33;20131;-87
2020/12/07 03:06:19;;;;;;;1.20;0.57;;;5.10;89.20;;;;;;3458110;41;20151;-87
2020/12/07 03:08:45;;;;;;;0.50;0.07;;;5.00;89.30;;;;;;3457050;34;20143;-87
2020/12/07 03:11:11;;;;;;;1.03;0.27;;;4.90;89.40;;;;;;3460306;33;20151;-88
2020/12/07 03:13:38;;;;;;;3.30;0.53;;;4.90;89.60;;;;;;3470843;41;20598;-88
2020/12/07 03:16:04;;;;;;;1.97;0.60;;;4.90;89.80;;;;;;3454893;33;20139;-89
2020/12/07 03:18:30;;;;;;;2.07;0.50;;;4.80;89.80;;;;;;3461706;41;20167;-88
2020/12/07 03:20:57;;;;;;;0.17;0.10;;;4.70;89.80;;;;;;3466935;41;20171;-88
2020/12/07 03:23:24;;;;;;;3.23;0.33;;;4.70;90.00;;;;;;3463288;33;20140;-88
2020/12/07 03:25:51;;;;;;;1.23;0.47;;;4.70;90.00;;;;;;3458640;41;20139;-88
2020/12/07 03:28:17;;;;;;;0.67;0.63;;;4.60;90.00;;;;;;3470079;33;20563;-88
2020/12/07 03:30:44;;;;;;;1.50;0.57;;;4.60;90.00;;;;;;3453760;34;20145;-88
2020/12/07 03:33:11;;;;;;;0.00;0.00;;;4.50;90.10;;;;;;3451869;33;20166;-89
2020/12/07 03:35:43;;;;;;;1.33;0.87;;;4.50;90.10;;;;;;3452443;41;20182;-87
2020/12/07 03:38:11;;;;;;;1.60;0.57;;;4.40;90.10;;;;;;3466528;41;20174;-87
2020/12/07 03:40:41;;;;;;;0.87;0.30;;;4.40;90.10;;;;;;3475902;33;20159;-88
2020/12/07 03:43:08;;;;;;;1.80;0.93;;;4.40;90.10;;;;;;3471937;33;20166;-89
2020/12/07 03:45:36;;;;;;;3.23;0.93;;;4.40;90.10;;;;;;3470205;33;20159;-87
2020/12/07 03:48:02;;;;;;;0.30;0.10;;;4.40;90.00;;;;;;3472645;33;20151;-88
2020/12/07 03:50:29;;;;;;;0.00;0.00;;;4.40;90.00;;;;;;3470245;33;20143;-88
2020/12/07 03:52:56;;;;;;;0.20;0.00;;;4.40;90.00;;;;;;3467131;33;20158;-87
2020/12/07 03:55:23;;;;;;;1.07;0.10;;;4.40;90.00;;;;;;3465564;41;20146;-88
2020/12/07 03:57:50;;;;;;;0.20;0.10;;;4.40;90.00;;;;;;3467923;33;20155;-87
2020/12/07 04:00:17;;;;;;;0.10;0.07;;;4.40;90.00;;;;;;3486139;33;20151;-88
2020/12/07 04:02:44;;;;;;;2.13;0.83;;;4.40;90.00;;;;;;3472660;41;20151;-87
2020/12/07 04:05:25;;;;;;;0.20;0.10;;;4.40;90.00;;;;;;3463293;33;20127;-88
2020/12/07 04:07:55;;;;;;;0.20;0.20;;;4.40;89.80;;;;;;3472293;33;20155;-88
2020/12/07 04:10:31;;;;;;;1.20;0.30;;;4.40;89.70;;;;;;3482061;33;20095;-88
2020/12/07 04:13:04;;;;;;;0.70;0.67;;;4.40;89.60;;;;;;3479621;33;20107;-87
2020/12/07 04:15:36;;;;;;;0.80;0.47;;;4.40;89.70;;;;;;3489740;33;20122;-89
2020/12/07 04:18:04;;;;;;;1.17;0.28;;;4.40;89.70;;;;;;3481541;41;20129;-88
2020/12/07 04:20:32;;;;;;;0.13;0.10;;;4.30;89.80;;;;;;3496510;33;20102;-87
2020/12/07 04:22:59;;;;;;;0.53;0.30;;;4.30;89.80;;;;;;3481567;33;20118;-88
2020/12/07 04:25:26;;;;;;;1.93;0.67;;;4.20;89.90;;;;;;3472831;33;20325;-87
2020/12/07 04:27:53;;;;;;;1.27;0.47;;;4.20;90.00;;;;;;3479225;41;20126;-88
2020/12/07 04:30:20;;;;;;;0.70;0.50;;;4.20;90.00;;;;;;3472113;34;20084;-88
2020/12/07 04:32:48;;;;;;;2.27;0.63;;;4.20;90.00;;;;;;3486014;41;20115;-87
2020/12/07 04:35:15;;;;;;;1.67;0.47;;;4.10;90.00;;;;;;3489371;41;20086;-89
2020/12/07 04:37:41;;;;;;;0.87;0.13;;;4.10;90.00;;;;;;3481152;41;20126;-87
2020/12/07 04:40:08;;;;;;;0.77;0.20;;;4.10;90.00;;;;;;3471301;33;20134;-87
2020/12/07 04:42:35;;;;;;;0.30;0.20;;;4.10;90.00;;;;;;3466158;41;20115;-87
2020/12/07 04:45:02;;;;;;;1.40;0.43;;;4.10;90.00;;;;;;3482382;33;20131;-88
2020/12/07 04:47:29;;;;;;;1.67;0.60;;;4.10;90.00;;;;;;3468692;34;20095;-88
2020/12/07 04:50:04;;;;;;;0.57;0.20;;;4.10;90.00;;;;;;3470516;34;20090;-87
2020/12/07 04:52:33;;;;;;;1.53;0.47;;;4.00;90.00;;;;;;3498102;33;20083;-90
2020/12/07 04:55:03;;;;;;;0.83;0.33;;;4.00;90.10;;;;;;3489682;41;20123;-89
2020/12/07 04:57:30;;;;;;;1.77;0.38;;;4.00;90.10;;;;;;3482828;33;20109;-88
2020/12/07 04:59:58;;;;;;;0.70;0.47;;;3.90;90.00;;;;;;3472576;41;20094;-91
2020/12/07 05:02:25;;;;;;;3.20;0.73;;;3.90;90.10;;;;;;3475402;33;20538;-91
2020/12/07 05:04:53;;;;;;;1.60;0.40;;;3.90;90.10;;;;;;3468822;41;20478;-87
2020/12/07 05:07:20;;;;;;;1.40;0.37;;;3.90;90.10;;;;;;3468822;41;20123;-89
2020/12/07 05:09:46;;;;;;;0.73;0.30;;;3.80;90.10;;;;;;3483732;33;20379;-89
2020/12/07 05:12:22;;;;;;;1.17;0.67;;;3.80;90.20;;;;;;3469706;41;20115;-89
2020/12/07 05:14:49;;;;;;;3.13;0.40;;;3.80;90.20;;;;;;3474653;41;20118;-89
2020/12/07 05:17:16;;;;;;;0.63;0.00;;;3.80;90.10;;;;;;3467573;33;20112;-89
2020/12/07 05:19:45;;;;;;;0.90;0.37;;;3.80;90.10;;;;;;3489124;33;20463;-90
2020/12/07 05:22:15;;;;;;;0.97;0.83;;;3.80;90.10;;;;;;3480296;33;20579;-89
2020/12/07 05:24:42;;;;;;;2.83;0.57;;;3.80;90.10;;;;;;3488674;33;20126;-89
2020/12/07 05:27:10;;;;;;;1.57;0.40;;;3.70;90.10;;;;;;3486336;41;20110;-87
2020/12/07 05:30:01;;;;;;;0.20;0.20;;;3.70;90.10;;;;;;3482870;41;20323;-89
2020/12/07 05:32:32;;;;;;;0.47;0.30;;;3.70;90.20;;;;;;3502966;33;20127;-88
2020/12/07 05:34:59;;;;;;;;;;;3.60;90.20;;;;;;3478565;41;20095;-89
2020/12/07 05:37:26;;;;;;;0.53;0.33;;;3.50;90.20;;;;;;3486976;41;19975;-88
2020/12/07 05:39:53;;;;;;;0.37;0.20;;;3.50;90.30;;;;;;3475494;41;20135;-90
2020/12/07 05:42:20;;;;;;;0.10;0.00;;;3.50;90.30;;;;;;3476608;41;20165;-88
2020/12/07 05:44:46;;;;;;;0.37;0.33;;;3.50;90.30;;;;;;3478052;33;20122;-89
2020/12/07 05:47:12;;;;;;;0.30;0.17;;;3.50;90.20;;;;;;3480807;33;20122;-89
2020/12/07 05:49:39;;;;;;;0.80;0.50;;;3.50;90.20;;;;;;3466218;41;20557;-88
2020/12/07 05:52:05;;;;;;;1.07;0.50;;;3.50;90.20;;;;;;3507317;33;20435;-89
2020/12/07 05:54:32;;;;;;;0.37;0.07;;;3.50;90.20;;;;;;3462947;41;20122;-88
2020/12/07 05:57:09;;;;;;;0.57;0.27;;;3.50;90.10;;;;;;3468854;33;20119;-89
2020/12/07 05:59:40;;;;;;;0.53;0.30;;;3.50;90.10;;;;;;3467829;41;20141;-89
2020/12/07 06:02:08;;;;;;;0.13;0.10;;;3.40;90.10;;;;;;3472337;33;20135;-89
2020/12/07 06:04:35;;;;;;;2.20;0.50;;;3.50;90.10;;;;;;3504247;33;20110;-90
2020/12/07 06:07:01;;;;;;;1.33;0.30;;;3.40;90.10;;;;;;3457400;34;20130;-90
2020/12/07 06:09:29;;;;;;;0.63;0.53;;;3.40;90.10;;;;;;3476592;33;20530;-89
2020/12/07 06:12:04;;;;;;;0.87;0.20;;;3.40;90.10;;;;;;3461567;41;20751;-89
2020/12/07 06:14:30;;;;;;;2.20;0.70;;;3.40;90.10;;;;;;3456975;41;20440;-87
2020/12/07 06:16:59;;;;;;;2.10;1.60;;;3.30;90.00;;;;;;3466223;33;20119;-89
2020/12/07 06:23:31;;;;;;;0.10;0.10;;;3.40;90.00;;;;;;3465035;34;20127;-90
2020/12/07 06:26:10;;;;;;;0.67;0.30;;;3.40;90.00;;;;;;3450455;34;20162;-88
2020/12/07 06:29:31;;;;;;;;;;;;;;;;;;;;;
2020/12/07 06:32:43;;;;;;;;;;;;;;;;;;;;;
2020/12/07 06:35:46;;;;;;;0.80;0.43;;;3.40;89.70;;;;;;3438700;41;20106;-88
2020/12/07 06:38:12;;;;;;;;;;;3.40;89.60;;;;;;3469282;41;20797;-88
2020/12/07 06:40:56;;;;;;;0.60;0.50;;;3.40;89.60;;;;;;3478304;33;20422;-89
2020/12/07 06:44:10;;;;;;;;;;;;;;;;;;;;;
2020/12/07 06:47:03;;;;;;;0.67;0.40;;;3.30;89.50;;;;;;3509090;33;20142;-90
2020/12/07 06:53:40;;;;;;;0.00;0.00;;;3.20;89.60;;;;;;3480008;41;20118;-91
2020/12/07 06:57:19;;;;;;;;;;;;;;;;;;;;;
2020/12/07 07:02:25;;;;;;;2.00;0.63;;;3.30;89.40;;;;;;3806294;28;20494;-89
2020/12/07 08:46:33;;;;;;;0.20;0.20;;;3.90;87.80;;;;;;3711825;34;14422911;31
2020/12/07 08:49:52;;;;;;;1.90;0.23;;;4.00;87.50;;;;;;4150443;27;20063;-89
2020/12/07 08:52:19;;;;;;;1.30;0.30;;;4.10;87.40;;;;;;4089655;35;20145;-87
2020/12/07 08:54:45;;;;;;;0.00;0.00;;;4.10;87.20;;;;;;4108013;35;20210;-89
2020/12/07 08:57:14;;;;;;;0.20;0.10;;;4.20;87.30;;;;;;4090935;27;20075;-89
2020/12/07 08:59:41;;;;;;;0.30;0.20;;;4.30;87.20;;;;;;4099344;27;20122;-88
2020/12/07 09:02:07;;;;;;;0.13;0.10;;;4.30;87.00;;;;;;4094185;27;20072;-88
2020/12/07 09:04:34;;;;;;;0.00;0.00;;;4.40;87.00;;;;;;4070431;27;20909;-87
2020/12/07 09:07:03;;;;;;;0.73;0.13;;;4.40;86.90;;;;;;4077286;35;20467;-88
2020/12/07 09:09:29;;;;;;;0.60;0.20;;;4.40;86.80;;;;;;4106309;27;20079;-89
2020/12/07 09:11:56;;;;;;;1.93;0.47;;;4.50;86.80;;;;;;4110833;27;20074;-87
2020/12/07 09:14:23;;;;;;;1.53;0.77;;;4.60;86.70;;;;;;4118176;27;20086;-90
2020/12/07 09:16:50;;;;;;;0.13;0.13;;;4.60;86.70;;;;;;4117948;27;20075;-88
2020/12/07 09:19:16;;;;;;;0.10;0.00;;;4.60;86.90;;;;;;4114635;35;20075;-87
2020/12/07 09:21:43;;;;;;;0.00;0.00;;;4.50;87.00;;;;;;4117483;27;20091;-88
2020/12/07 09:24:14;;;;;;;0.10;0.10;;;4.50;87.20;;;;;;4104867;35;20079;-90
2020/12/07 09:26:41;;;;;;;3.37;0.63;;;4.40;87.40;;;;;;4112993;27;20086;-90
2020/12/07 09:29:07;;;;;;;0.63;0.37;;;4.40;87.90;;;;;;4117775;35;20093;-88
2020/12/07 09:31:33;;;;;;;0.47;0.13;;;4.40;87.70;;;;;;4113639;27;20427;-89
2020/12/07 09:34:00;;;;;;;0.40;0.30;;;4.30;87.60;;;;;;4117294;35;20079;-89
2020/12/07 09:36:26;;;;;;;1.37;0.40;;;4.40;87.70;;;;;;4108355;27;20075;-89
2020/12/07 09:38:53;;;;;;;1.27;0.70;;;4.40;87.60;;;;;;4112170;27;20303;-89
2020/12/07 09:41:19;;;;;;;2.07;0.40;;;4.50;87.50;;;;;;4116105;27;20087;-88
2020/12/07 09:43:49;;;;;;;1.50;0.30;;;4.60;87.40;;;;;;4133390;27;20092;-89
2020/12/07 09:46:16;;;;;;;0.10;0.00;;;4.60;87.30;;;;;;4108989;28;20071;-89
2020/12/07 09:48:45;;;;;;;0.97;0.33;;;4.60;87.40;;;;;;4119045;27;20399;-89
2020/12/07 09:51:11;;;;;;;0.90;0.23;;;4.50;87.50;;;;;;4111609;35;20115;-88
2020/12/07 09:53:38;;;;;;;0.50;0.47;;;4.60;87.60;;;;;;4116563;27;20086;-89
2020/12/07 09:56:35;;;;;;;;;;;;;;;;;;;;;
2020/12/07 09:59:17;;;;;;;;;;;;;;;;;;;;;
2020/12/07 10:01:49;;;;;;;;;;;4.70;87.60;;;;;;4163839;27;20455;-91
2020/12/07 10:08:12;;;;;;;0.20;0.20;;;4.60;87.50;;;;;;4081926;27;20056;-89
2020/12/07 10:13:19;;;;;;;1.27;0.38;;;4.80;87.30;;;;;;4082060;27;21058;-89
2020/12/07 10:15:52;;;;;;;0.20;0.00;;;4.80;87.30;;;;;;4134467;27;20351;-90
2020/12/07 10:18:19;;;;;;;0.40;0.10;;;4.80;87.30;;;;;;4141972;26;20066;-88
2020/12/07 10:20:46;;;;;;;0.43;0.20;;;4.80;87.40;;;;;;4140648;34;20075;-88
2020/12/07 10:23:17;;;;;;;0.00;0.00;;;4.80;87.40;;;;;;4144980;27;20085;-89
2020/12/07 10:57:42;;;;;;;4.93;0.77;;;5.10;87.70;;;;;;4134030;27;20142;-89
2020/12/07 13:54:38;;;;;;;0.53;0.13;;;6.50;86.50;;;;;;4138274;27;20085;-89
2020/12/07 13:57:55;;;;;;;1.33;0.37;;;6.60;86.70;;;;;;4115819;34;20671;-90
2020/12/07 14:00:43;;;;;;;0.10;0.00;;;6.50;86.80;;;;;;4138557;27;20101;-90
2020/12/07 17:45:08;;;;;;;;;;;;;;;;;;;;;
2020/12/07 17:58:50;;;;;;;0.83;0.33;;;5.80;88.50;;;;;;4107851;27;20094;-85
